Main page
METAR-TAF:

METAR-TAF

Airports :

Cazaux, France

Cazaux Air Base

latitude: 44-32N, longitude: 001-08W, elevation: 25 m

Current weather observation

The report was made 23 minutes ago, at 03:30 UTC
Calm wind
Temperature 6°C
Humidity 87%
Pressure 1024 hPa
Visibility 10 km or more
no clouds below 1500 m and no cumulonimbus

METAR: LFBC 200330Z AUTO 00000KT CAVOK 06/04 Q1024

Time: 05:53 (03:53 UTC)

Forecast

The report was made 7 hours and 53 minutes ago, at 20:00 UTC
Forecast valid from 19 at 21 UTC to 20 at 21 UTC
Wind 5 kt from the East
Visibility 10 km or more
no clouds below 1500 m and no cumulonimbus
Temporary
from 20 at 04 UTC to 20 at 07 UTC
Visibility: 0800 m
patches of fog

TAF: LFBC 192000Z 1921/2021 09005KT CAVOK TEMPO 2004/2007 0800 BCFG

Weather observations and forecasts of more than 4000 airports (METAR and TAF reports).

The available stations are represented by yellow and red dots on the map.

Hover mouse over dot to see the name of the station.

Then click to see weather observations and forecasts.

To change the map : click on the green buttons with a black cross to zoom in, on the green button with a dash to zoom out, or on the green arrows for adjacent maps.


METAR-TAF: